Time;durP1;ratioP1;P1;durP2;ratioP2;P2;SDS_P1;SDS_P2;PMS_P1;PMS_P2;Temp;Humidity;BMP_temperature;BMP_pressure;BME280_temperature;BME280_humidity;BME280_pressure;Samples;Min_cycle;Max_cycle;Signal;HPM_P1;HPM_P2
2023/03/09 00:02:20;;;;;;;30.70;15.03;;;;;;;6.26;100.00;97866.41;5087429;28;20221;-70
2023/03/09 00:04:46;;;;;;;32.07;14.50;;;;;;;6.23;100.00;97863.81;5087930;28;20282;-70
2023/03/09 00:07:13;;;;;;;28.00;14.73;;;;;;;6.38;100.00;97861.00;5086746;28;20195;-70
2023/03/09 00:09:39;;;;;;;29.23;14.13;;;;;;;6.36;100.00;97870.69;5090037;28;20193;-71
2023/03/09 00:12:06;;;;;;;31.17;14.47;;;;;;;6.31;100.00;97861.97;5087005;28;20199;-70
2023/03/09 00:14:32;;;;;;;31.20;15.13;;;;;;;6.45;100.00;97859.22;5084335;28;20305;-70
2023/03/09 00:16:59;;;;;;;31.70;14.83;;;;;;;6.43;100.00;97861.00;5089596;28;20198;-70
2023/03/09 00:19:30;;;;;;;33.27;15.90;;;;;;;6.47;100.00;97857.44;5087904;28;20196;-70
2023/03/09 00:21:57;;;;;;;33.33;15.27;;;;;;;6.42;100.00;97869.78;5076757;28;20210;-70
2023/03/09 00:24:28;;;;;;;31.90;14.97;;;;;;;6.40;100.00;97861.00;5078774;28;20705;-70
2023/03/09 00:26:56;;;;;;;32.50;14.23;;;;;;;6.43;100.00;97861.88;5082579;28;20256;-70
2023/03/09 00:29:24;;;;;;;35.73;15.37;;;;;;;6.48;100.00;97860.06;5085926;28;20225;-70
2023/03/09 00:31:52;;;;;;;32.57;14.10;;;;;;;6.44;100.00;97854.84;5087385;28;20223;-70
2023/03/09 00:34:19;;;;;;;34.27;15.27;;;;;;;6.45;100.00;97857.47;5085594;28;20576;-70
2023/03/09 00:36:45;;;;;;;35.23;15.70;;;;;;;6.44;100.00;97850.47;5087814;28;20242;-70
2023/03/09 00:39:14;;;;;;;33.93;15.07;;;;;;;6.51;100.00;97854.75;5087886;28;20550;-70
2023/03/09 00:41:41;;;;;;;31.73;15.33;;;;;;;6.52;100.00;97861.75;5079808;28;20205;-70
2023/03/09 00:44:09;;;;;;;28.53;13.73;;;;;;;6.52;100.00;97853.88;5085363;28;20613;-70
2023/03/09 00:46:36;;;;;;;32.47;14.97;;;;;;;6.63;100.00;97851.09;5092379;28;20261;-70
2023/03/09 00:49:05;;;;;;;34.43;15.57;;;;;;;6.72;100.00;97850.97;5090783;28;20206;-70
2023/03/09 00:51:34;;;;;;;32.73;14.90;;;;;;;6.70;100.00;97851.91;5090929;28;20198;-71
2023/03/09 00:54:00;;;;;;;32.87;15.33;;;;;;;6.67;100.00;97850.19;5086132;28;20224;-70
2023/03/09 00:56:29;;;;;;;27.80;13.53;;;;;;;6.61;100.00;97847.63;5092168;28;20201;-70
2023/03/09 00:58:57;;;;;;;28.97;13.50;;;;;;;6.59;100.00;97867.81;5086377;28;20203;-70
2023/03/09 01:01:23;;;;;;;33.50;15.23;;;;;;;6.67;100.00;97886.13;5084844;28;20256;-70
2023/03/09 01:03:50;;;;;;;32.20;14.73;;;;;;;6.64;100.00;97868.63;5090010;28;20289;-71
2023/03/09 01:06:19;;;;;;;29.43;12.67;;;;;;;6.59;100.00;97876.56;5091901;28;20267;-71
2023/03/09 01:08:46;;;;;;;31.20;13.77;;;;;;;6.74;100.00;97877.28;5090937;28;20208;-70
2023/03/09 01:11:14;;;;;;;30.37;13.37;;;;;;;6.62;100.00;97875.66;5088285;28;20212;-70
2023/03/09 01:13:41;;;;;;;31.27;13.90;;;;;;;6.60;100.00;97874.81;5091876;28;20215;-73
2023/03/09 01:16:08;;;;;;;29.00;13.23;;;;;;;6.58;100.00;97873.97;5091545;28;20219;-70
2023/03/09 01:18:34;;;;;;;30.33;13.87;;;;;;;6.66;100.00;97874.72;5087906;28;20193;-70
2023/03/09 01:21:01;;;;;;;32.33;14.50;;;;;;;6.71;100.00;97880.81;5090555;28;20270;-70
2023/03/09 01:23:27;;;;;;;30.93;13.00;;;;;;;6.67;100.00;97884.38;5091915;28;20189;-70
2023/03/09 01:25:55;;;;;;;29.37;13.47;;;;;;;6.79;100.00;97883.34;5090691;28;20688;-70
2023/03/09 01:28:22;;;;;;;31.93;13.87;;;;;;;6.77;100.00;97879.84;5087775;28;20540;-70
2023/03/09 01:30:48;;;;;;;30.63;13.80;;;;;;;6.69;100.00;97885.22;5092483;28;20230;-70
2023/03/09 01:33:14;;;;;;;27.43;13.27;;;;;;;6.67;100.00;97896.66;5092989;28;20270;-71
2023/03/09 01:35:41;;;;;;;31.17;13.37;;;;;;;6.74;100.00;97922.84;5085603;28;20224;-71
2023/03/09 01:38:08;;;;;;;27.93;12.80;;;;;;;6.67;100.00;97922.94;5091920;28;20206;-71
2023/03/09 01:40:34;;;;;;;27.20;12.80;;;;;;;6.57;100.00;97903.78;5089563;28;20595;-70
2023/03/09 01:43:25;;;;;;;30.80;14.93;;;;;;;6.52;100.00;97910.84;5092636;28;20318;-70
2023/03/09 01:46:19;;;;;;;27.63;13.20;;;;;;;6.55;100.00;97897.66;5088701;28;20262;-71
2023/03/09 01:48:54;;;;;;;32.30;14.23;;;;;;;6.58;100.00;97895.00;5088726;28;20207;-70
2023/03/09 01:51:23;;;;;;;29.03;13.70;;;;;;;6.55;100.00;97901.16;5090511;28;20201;-71
2023/03/09 01:53:51;;;;;;;29.57;14.73;;;;;;;6.56;100.00;97899.41;5092877;28;20213;-70
2023/03/09 01:56:21;;;;;;;29.03;14.00;;;;;;;6.53;100.00;97902.06;5091826;28;20213;-70
2023/03/09 01:58:50;;;;;;;27.93;14.20;;;;;;;6.53;100.00;97909.94;5091419;28;20746;-71
2023/03/09 02:01:17;;;;;;;27.43;14.33;;;;;;;6.51;100.00;97909.09;5090675;28;20224;-71
2023/03/09 02:03:48;;;;;;;30.20;15.07;;;;;;;6.67;100.00;97923.81;5092665;28;20721;-71
2023/03/09 02:06:17;;;;;;;30.70;15.57;;;;;;;6.58;100.00;97918.66;5090415;28;20220;-70
2023/03/09 02:09:18;;;;;;;26.53;13.33;;;;;;;6.54;100.00;97925.72;5089821;28;20208;-71
2023/03/09 02:11:45;;;;;;;28.53;13.87;;;;;;;6.57;100.00;97932.69;5087010;28;20229;-70
2023/03/09 02:14:13;;;;;;;26.33;13.33;;;;;;;6.54;100.00;97930.09;5089979;28;20219;-70
2023/03/09 02:16:39;;;;;;;25.40;12.90;;;;;;;6.55;100.00;97939.72;5090920;28;20607;-71
2023/03/09 02:19:15;;;;;;;25.97;14.33;;;;;;;6.67;100.00;97947.47;5085787;28;20216;-70
2023/03/09 02:21:49;;;;;;;26.67;13.03;;;;;;;6.73;100.00;97944.78;5080323;28;20475;-70
2023/03/09 02:24:29;;;;;;;23.17;12.90;;;;;;;6.67;100.00;97928.19;5079175;28;20215;-70
2023/03/09 02:27:02;;;;;;;22.63;11.33;;;;;;;6.72;100.00;97945.66;5084944;28;20203;-70
2023/03/09 02:29:29;;;;;;;23.43;12.47;;;;;;;6.81;100.00;97961.38;5086645;28;20196;-70
2023/03/09 02:31:56;;;;;;;23.07;11.50;;;;;;;6.75;100.00;97964.03;5083354;28;20573;-71
2023/03/09 02:34:22;;;;;;;23.33;12.23;;;;;;;6.68;100.00;97969.38;5087020;28;20227;-70
2023/03/09 02:36:48;;;;;;;18.63;11.10;;;;;;;6.65;100.00;97970.28;5089474;28;20350;-70
2023/03/09 02:39:30;;;;;;;22.50;12.10;;;;;;;6.64;100.00;97970.31;5089977;28;20221;-70
2023/03/09 02:41:57;;;;;;;19.93;10.47;;;;;;;6.56;100.00;97973.91;5088238;28;20204;-70
2023/03/09 02:44:26;;;;;;;22.47;12.20;;;;;;;6.60;100.00;97974.72;5091204;28;20215;-71
2023/03/09 02:46:52;;;;;;;18.17;10.00;;;;;;;6.53;100.00;97978.31;5088405;28;20210;-70
2023/03/09 02:49:19;;;;;;;17.97;9.93;;;;;;;6.53;100.00;97984.44;5083774;28;20195;-70
2023/03/09 02:51:45;;;;;;;14.10;8.67;;;;;;;6.50;100.00;97987.09;5090150;28;20207;-70
2023/03/09 02:54:12;;;;;;;19.43;10.10;;;;;;;6.46;100.00;97981.88;5088906;28;20220;-70
2023/03/09 02:56:38;;;;;;;15.83;8.83;;;;;;;6.39;100.00;97990.69;5085227;28;20593;-70
2023/03/09 02:59:04;;;;;;;14.23;8.23;;;;;;;6.46;100.00;98001.16;5089311;28;20232;-70
2023/03/09 03:01:31;;;;;;;16.60;8.97;;;;;;;6.32;100.00;98003.00;5091681;28;20197;-70
2023/03/09 03:03:57;;;;;;;12.77;7.20;;;;;;;6.30;100.00;97994.28;5089282;28;20251;-70
2023/03/09 03:06:23;;;;;;;10.37;5.83;;;;;;;6.23;100.00;98011.84;5086234;28;20196;-70
2023/03/09 03:08:50;;;;;;;14.57;7.20;;;;;;;6.43;100.00;98016.09;5087966;28;20642;-70
2023/03/09 03:11:16;;;;;;;11.37;6.87;;;;;;;6.63;100.00;98029.94;5091451;28;20616;-71
2023/03/09 03:13:42;;;;;;;14.67;8.73;;;;;;;6.75;100.00;98028.94;5087567;28;20728;-71
2023/03/09 03:16:09;;;;;;;15.40;8.57;;;;;;;6.84;100.00;98026.25;5087380;28;20216;-71
2023/03/09 03:18:35;;;;;;;15.93;8.67;;;;;;;6.82;100.00;98028.88;5088758;28;20568;-70
2023/03/09 03:21:02;;;;;;;15.53;8.73;;;;;;;6.79;100.00;98038.53;5089664;28;20651;-70
2023/03/09 03:23:28;;;;;;;14.37;9.00;;;;;;;6.85;100.00;98051.66;5083575;28;20197;-71
2023/03/09 03:25:55;;;;;;;14.97;9.00;;;;;;;6.79;100.00;98059.56;5089507;28;20220;-70
2023/03/09 03:28:21;;;;;;;15.10;8.43;;;;;;;6.74;100.00;98059.63;5088715;28;20688;-70
2023/03/09 03:30:51;;;;;;;11.03;6.27;;;;;;;6.82;100.00;98065.72;5088480;28;20197;-70
2023/03/09 03:33:18;;;;;;;6.77;4.40;;;;;;;6.78;100.00;98066.59;5088862;28;20196;-70
2023/03/09 03:35:44;;;;;;;4.13;2.30;;;;;;;6.88;100.00;98080.56;5090182;28;20251;-71
2023/03/09 03:38:11;;;;;;;3.50;1.80;;;;;;;6.98;100.00;98095.38;5088553;28;20482;-70
2023/03/09 03:40:38;;;;;;;3.30;1.50;;;;;;;7.03;100.00;98098.81;5085204;28;20914;-70
2023/03/09 03:43:04;;;;;;;2.93;1.23;;;;;;;7.05;100.00;98093.56;5090311;28;20202;-71
2023/03/09 03:45:30;;;;;;;1.40;1.17;;;;;;;7.10;100.00;98105.78;5088739;28;20224;-71
2023/03/09 03:47:57;;;;;;;2.70;1.20;;;;;;;7.16;100.00;98110.97;5086613;28;20195;-71
2023/03/09 03:50:23;;;;;;;1.83;1.47;;;;;;;7.18;100.00;98118.84;5088062;28;20258;-70
2023/03/09 03:52:50;;;;;;;1.80;1.33;;;;;;;7.17;100.00;98115.34;5090510;28;20207;-70
2023/03/09 03:55:16;;;;;;;2.50;1.70;;;;;;;7.18;100.00;98132.00;5085846;28;20259;-70
2023/03/09 03:57:42;;;;;;;2.20;1.70;;;;;;;7.21;100.00;98137.28;5088377;28;20724;-70
2023/03/09 04:00:10;;;;;;;3.93;1.90;;;;;;;7.25;100.00;98138.13;5087437;28;20191;-70
2023/03/09 04:02:38;;;;;;;3.20;2.23;;;;;;;7.30;100.00;98147.72;5088604;28;20204;-70
2023/03/09 04:05:05;;;;;;;2.73;2.03;;;;;;;7.24;100.00;98150.41;5086184;28;20335;-71
2023/03/09 04:07:32;;;;;;;3.90;2.40;;;;;;;7.20;100.00;98151.28;5089467;28;20654;-70
2023/03/09 04:09:59;;;;;;;2.93;2.10;;;;;;;7.21;100.00;98158.34;5087594;28;20195;-70
2023/03/09 04:12:25;;;;;;;3.63;1.83;;;;;;;7.31;100.00;98165.25;5077948;28;20194;-70
2023/03/09 04:14:51;;;;;;;3.10;1.60;;;;;;;7.36;100.00;98173.97;5085463;28;20240;-70
2023/03/09 04:17:18;;;;;;;2.03;1.23;;;;;;;7.33;100.00;98179.28;5088898;28;20228;-70
2023/03/09 04:19:44;;;;;;;1.63;1.20;;;;;;;7.33;100.00;98181.91;5080209;28;20201;-70
2023/03/09 04:22:10;;;;;;;2.17;1.40;;;;;;;7.41;100.00;98187.97;5085999;28;20221;-70
2023/03/09 04:24:37;;;;;;;1.70;1.30;;;;;;;7.43;100.00;98191.47;5087583;28;20221;-70
2023/03/09 04:27:03;;;;;;;1.73;1.43;;;;;;;7.54;100.00;98194.84;5088085;28;20194;-70
2023/03/09 04:29:30;;;;;;;1.83;1.37;;;;;;;7.60;100.00;98208.84;5088780;28;20203;-70
2023/03/09 04:31:56;;;;;;;2.43;1.50;;;;;;;7.52;100.00;98206.28;5082026;28;20194;-71
2023/03/09 04:34:22;;;;;;;1.87;1.50;;;;;;;7.46;100.00;98207.22;5086960;28;20244;-70
2023/03/09 04:36:49;;;;;;;5.50;2.57;;;;;;;7.41;100.00;98216.06;5086840;28;20200;-70
2023/03/09 04:39:15;;;;;;;4.80;1.57;;;;;;;7.47;100.00;98216.88;5088689;28;20249;-71
2023/03/09 04:41:42;;;;;;;1.77;1.37;;;;;;;7.37;100.00;98222.25;5085803;28;20467;-70
2023/03/09 04:44:08;;;;;;;1.70;1.30;;;;;;;7.37;100.00;98231.03;5087774;28;20185;-70
2023/03/09 04:46:34;;;;;;;1.43;1.00;;;;;;;7.49;100.00;98236.16;5087622;28;20235;-70
2023/03/09 04:49:00;;;;;;;1.23;0.80;;;;;;;7.44;100.00;98232.69;5078363;28;20314;-70
2023/03/09 04:51:29;;;;;;;1.67;1.00;;;;;;;7.49;100.00;98233.53;5089318;28;20196;-70
2023/03/09 04:53:55;;;;;;;1.23;0.90;;;;;;;7.47;100.00;98240.56;5089278;28;20221;-70
2023/03/09 04:56:22;;;;;;;3.07;1.00;;;;;;;7.45;100.00;98244.13;5087229;28;20201;-70
2023/03/09 04:58:48;;;;;;;1.17;0.97;;;;;;;7.53;100.00;98255.44;5082568;28;20229;-70
2023/03/09 05:01:15;;;;;;;1.60;1.40;;;;;;;7.52;100.00;98254.56;5087665;28;20227;-70
2023/03/09 05:03:41;;;;;;;1.97;1.40;;;;;;;7.52;100.00;98265.09;5087315;28;20228;-70
2023/03/09 05:06:08;;;;;;;2.17;1.60;;;;;;;7.47;100.00;98256.38;5087927;28;20224;-70
2023/03/09 05:08:34;;;;;;;1.70;1.50;;;;;;;7.43;100.00;98267.81;5087676;28;20201;-70
2023/03/09 05:11:01;;;;;;;3.67;1.50;;;;;;;7.35;100.00;98272.28;5080169;28;20300;-70
2023/03/09 05:13:27;;;;;;;2.17;1.50;;;;;;;7.43;100.00;98286.25;5088479;28;20247;-71
2023/03/09 05:15:54;;;;;;;2.87;1.50;;;;;;;7.39;100.00;98262.59;5084050;28;20218;-70
2023/03/09 05:18:20;;;;;;;3.93;1.50;;;;;;;7.41;100.00;98290.66;5081587;28;20201;-70
2023/03/09 05:20:46;;;;;;;2.87;1.37;;;;;;;7.49;100.00;98304.63;5086916;28;20677;-70
2023/03/09 05:23:13;;;;;;;2.07;1.60;;;;;;;7.46;100.00;98307.31;5087453;28;20195;-70
2023/03/09 05:25:39;;;;;;;2.77;1.53;;;;;;;7.47;100.00;98316.94;5087915;28;20249;-70
2023/03/09 05:28:05;;;;;;;3.00;1.80;;;;;;;7.47;100.00;98316.94;5086083;28;20249;-70
2023/03/09 05:30:32;;;;;;;2.73;1.70;;;;;;;7.51;100.00;98323.94;5084102;28;20692;-71
2023/03/09 05:32:58;;;;;;;3.87;1.70;;;;;;;7.49;100.00;98322.19;5087285;28;20670;-70
2023/03/09 05:35:25;;;;;;;3.50;2.00;;;;;;;7.60;100.00;98327.38;5091200;28;20719;-70
2023/03/09 05:37:51;;;;;;;4.07;1.77;;;;;;;7.64;100.00;98335.28;5086284;28;20263;-70
2023/03/09 05:40:21;;;;;;;4.27;1.90;;;;;;;7.70;100.00;98337.84;5091639;28;20202;-70
2023/03/09 05:42:47;;;;;;;3.63;2.20;;;;;;;7.78;100.00;98343.94;5086547;28;20198;-70
2023/03/09 05:45:13;;;;;;;5.47;2.37;;;;;;;7.85;100.00;98344.75;5089477;28;20223;-70
2023/03/09 05:47:40;;;;;;;6.20;2.47;;;;;;;7.98;100.00;98343.72;5090300;28;20190;-70
2023/03/09 05:50:08;;;;;;;3.60;2.30;;;;;;;8.05;100.00;98352.50;5086724;28;20217;-71
2023/03/09 05:52:34;;;;;;;3.43;2.20;;;;;;;7.94;100.00;98357.84;5090704;28;20225;-70
2023/03/09 05:55:00;;;;;;;3.33;2.00;;;;;;;7.95;100.00;98372.75;5085904;28;20227;-70
2023/03/09 05:57:27;;;;;;;3.37;2.10;;;;;;;7.91;100.00;98371.03;5088357;28;20263;-70
2023/03/09 05:59:53;;;;;;;5.73;2.03;;;;;;;7.96;100.00;98363.09;5082899;28;20198;-71
2023/03/09 06:02:19;;;;;;;4.73;2.40;;;;;;;7.99;100.00;98368.34;5088692;28;20218;-70
2023/03/09 06:04:50;;;;;;;7.73;2.47;;;;;;;8.04;100.00;98364.78;5087368;28;20739;-70
2023/03/09 06:07:17;;;;;;;7.13;2.23;;;;;;;8.03;100.00;98365.69;5081399;28;20669;-70
2023/03/09 06:09:44;;;;;;;7.20;1.57;;;;;;;8.09;100.00;98372.66;5059953;28;20204;-71
2023/03/09 06:12:10;;;;;;;6.17;1.60;;;;;;;8.10;100.00;98367.38;5082970;28;20242;-72
2023/03/09 06:14:37;;;;;;;7.43;2.03;;;;;;;8.08;100.00;98379.69;5083490;28;20276;-72
2023/03/09 06:17:04;;;;;;;9.63;1.90;;;;;;;8.12;100.00;98375.25;5077851;28;20224;-72
2023/03/09 06:19:30;;;;;;;5.57;1.60;;;;;;;8.14;100.00;98384.91;5087881;28;20217;-71
2023/03/09 06:21:56;;;;;;;7.10;1.70;;;;;;;8.15;100.00;98391.91;5086885;28;20207;-71
2023/03/09 06:24:23;;;;;;;7.37;1.83;;;;;;;8.14;100.00;98392.81;5086094;28;20213;-70
2023/03/09 06:26:49;;;;;;;7.27;2.40;;;;;;;8.25;100.00;98403.25;5084777;28;20213;-70
2023/03/09 06:29:15;;;;;;;5.93;1.70;;;;;;;8.26;100.00;98402.38;5086583;28;20253;-70
2023/03/09 06:31:42;;;;;;;6.57;1.50;;;;;;;8.35;100.00;98404.94;5088440;28;20189;-70
2023/03/09 06:34:08;;;;;;;5.17;1.73;;;;;;;8.35;100.00;98404.94;5084746;28;20198;-70
2023/03/09 06:36:35;;;;;;;6.13;1.80;;;;;;;8.34;100.00;98411.09;5085351;28;20229;-70
2023/03/09 06:39:01;;;;;;;9.50;1.87;;;;;;;8.34;100.00;98413.75;5085655;28;20209;-70
2023/03/09 06:41:31;;;;;;;8.80;2.40;;;;;;;8.44;100.00;98428.63;5087036;28;20197;-70
2023/03/09 06:43:58;;;;;;;12.93;2.60;;;;;;;8.43;100.00;98426.88;5081355;28;20206;-71
2023/03/09 06:46:25;;;;;;;9.37;2.03;;;;;;;8.44;100.00;98425.09;5080401;28;20232;-71
2023/03/09 06:48:51;;;;;;;8.00;1.90;;;;;;;8.44;100.00;98425.09;5084334;28;20697;-70
2023/03/09 06:51:18;;;;;;;8.87;2.53;;;;;;;8.45;100.00;98445.31;5083164;28;20304;-70
2023/03/09 06:53:45;;;;;;;5.63;1.90;;;;;;;8.51;100.00;98442.63;5083271;28;20263;-70
2023/03/09 06:56:11;;;;;;;8.57;2.23;;;;;;;8.56;100.00;98455.75;5080288;28;20250;-70
2023/03/09 06:58:38;;;;;;;11.20;2.63;;;;;;;8.50;100.00;98455.81;5080449;28;20633;-70
2023/03/09 07:01:08;;;;;;;7.27;1.90;;;;;;;8.50;100.00;98454.06;5076132;28;20226;-76
2023/03/09 07:03:35;;;;;;;12.27;2.50;;;;;;;8.54;100.00;98454.91;5082392;28;20639;-76
2023/03/09 07:06:03;;;;;;;10.20;2.07;;;;;;;8.64;100.00;98465.34;5080494;28;20574;-76
2023/03/09 07:08:29;;;;;;;4.70;1.90;;;;;;;8.69;100.00;98474.06;5074777;28;20193;-72
2023/03/09 07:10:56;;;;;;;21.73;3.70;;;;;;;8.74;100.00;98468.75;5086028;28;20201;-72
2023/03/09 07:13:24;;;;;;;12.27;2.07;;;;;;;8.73;100.00;98478.44;5087452;28;20206;-72
2023/03/09 07:15:50;;;;;;;7.57;1.80;;;;;;;8.72;100.00;98479.31;5089121;28;20639;-72
2023/03/09 07:18:17;;;;;;;9.03;2.07;;;;;;;8.68;100.00;98485.53;5087744;28;20550;-72
2023/03/09 07:20:43;;;;;;;5.33;1.87;;;;;;;8.69;100.00;98497.81;5089687;28;20203;-72
2023/03/09 07:23:10;;;;;;;6.87;1.70;;;;;;;8.75;100.00;98507.44;5087784;28;20198;-72
2023/03/09 07:25:37;;;;;;;6.87;1.73;;;;;;;8.92;100.00;98505.53;5077874;28;20214;-72
2023/03/09 07:28:06;;;;;;;5.47;1.60;;;;;;;8.94;100.00;98505.50;5081405;28;20258;-72
2023/03/09 07:30:37;;;;;;;5.63;2.00;;;;;;;8.95;100.00;98507.25;5072845;28;20258;-74
2023/03/09 07:33:03;;;;;;;5.90;1.90;;;;;;;8.96;100.00;98520.44;5086291;28;20565;-73
2023/03/09 07:35:30;;;;;;;3.07;1.40;;;;;;;8.95;100.00;98523.97;5077224;28;20477;-72
2023/03/09 07:37:56;;;;;;;4.60;1.40;;;;;;;9.05;100.00;98527.38;5089475;28;20236;-74
2023/03/09 07:40:23;;;;;;;3.57;1.80;;;;;;;9.03;100.00;98522.13;5089920;28;20195;-74
2023/03/09 07:42:50;;;;;;;3.07;1.40;;;;;;;9.04;100.00;98526.50;5080933;28;20227;-74
2023/03/09 07:45:16;;;;;;;2.60;1.53;;;;;;;9.08;100.00;98528.22;5083200;28;20268;-74
2023/03/09 07:47:45;;;;;;;4.63;1.40;;;;;;;9.07;100.00;98530.88;5085695;28;20246;-73
2023/03/09 07:50:11;;;;;;;5.70;1.63;;;;;;;9.09;100.00;98537.03;5088038;28;20722;-72
2023/03/09 07:52:37;;;;;;;4.37;1.63;;;;;;;9.11;100.00;98535.25;5079660;28;20202;-73
2023/03/09 07:55:07;;;;;;;12.87;2.47;;;;;;;9.13;100.00;98543.16;5082846;28;20272;-74
2023/03/09 07:57:34;;;;;;;3.93;1.73;;;;;;;9.21;100.00;98552.75;5081929;28;20234;-73
2023/03/09 08:00:01;;;;;;;3.73;1.57;;;;;;;9.21;100.00;98552.75;5084872;28;20190;-76
2023/03/09 08:02:30;;;;;;;4.20;1.40;;;;;;;9.32;100.00;98555.28;5084197;28;20230;-76
2023/03/09 08:04:56;;;;;;;9.07;1.60;;;;;;;9.39;100.00;98551.66;5074639;28;20739;-74
2023/03/09 08:07:22;;;;;;;4.23;1.30;;;;;;;9.57;100.00;98556.72;5086487;28;20190;-74
2023/03/09 08:09:48;;;;;;;3.30;1.47;;;;;;;9.67;98.89;98563.66;5080087;28;20233;-74
2023/03/09 08:12:15;;;;;;;3.17;1.43;;;;;;;9.62;99.34;98567.25;5079438;28;20658;-74
2023/03/09 08:14:41;;;;;;;7.37;1.60;;;;;;;9.59;99.80;98570.78;5084039;28;20312;-73
2023/03/09 08:17:07;;;;;;;5.03;1.30;;;;;;;9.63;99.78;98569.88;5083433;28;20669;-74
2023/03/09 08:19:34;;;;;;;3.63;1.37;;;;;;;9.70;99.00;98579.50;5080110;28;20836;-76
2023/03/09 08:22:01;;;;;;;2.73;1.50;;;;;;;9.81;98.42;98581.13;5083004;28;20204;-75
2023/03/09 08:24:27;;;;;;;2.50;1.10;;;;;;;9.86;98.09;98576.63;5080381;28;20258;-75
2023/03/09 08:26:54;;;;;;;3.57;1.30;;;;;;;9.89;97.71;98581.88;5083219;28;20197;-75
2023/03/09 08:29:20;;;;;;;4.10;1.17;;;;;;;9.85;98.11;98586.34;5085361;28;20421;-73
2023/03/09 08:31:47;;;;;;;3.17;1.17;;;;;;;9.86;98.14;98595.16;5083173;28;20578;-73
2023/03/09 08:34:14;;;;;;;3.43;1.10;;;;;;;10.02;96.42;98594.94;5078738;28;20201;-75
2023/03/09 08:36:41;;;;;;;3.27;1.03;;;;;;;9.97;97.21;98604.69;5077936;28;20539;-75
2023/03/09 08:39:07;;;;;;;3.80;1.10;;;;;;;9.98;96.13;98605.56;5087193;28;20198;-74
2023/03/09 08:41:34;;;;;;;3.90;1.47;;;;;;;10.02;96.52;98609.94;5085306;28;20252;-74
2023/03/09 08:44:00;;;;;;;1.90;1.00;;;;;;;10.04;96.54;98609.03;5081088;28;20673;-76
2023/03/09 08:46:27;;;;;;;3.53;1.00;;;;;;;10.09;95.81;98611.59;5083849;28;20200;-75
2023/03/09 08:48:53;;;;;;;4.17;1.00;;;;;;;10.12;95.07;98621.28;5083825;28;20670;-75
2023/03/09 08:51:19;;;;;;;2.77;1.00;;;;;;;10.20;95.89;98619.38;5081729;28;20678;-74
2023/03/09 08:53:46;;;;;;;2.97;1.30;;;;;;;10.51;95.01;98622.50;5079223;28;20658;-74
2023/03/09 08:56:12;;;;;;;2.10;1.10;;;;;;;10.88;92.42;98628.13;5080619;28;21104;-73
2023/03/09 08:58:39;;;;;;;4.07;0.80;;;;;;;11.11;90.17;98633.88;5080687;28;20288;-73
2023/03/09 09:01:08;;;;;;;1.77;0.90;;;;;;;11.15;88.89;98640.00;5080924;28;20240;-74
2023/03/09 09:03:35;;;;;;;1.60;0.70;;;;;;;11.29;88.23;98649.50;5087875;28;20197;-73
2023/03/09 09:06:07;;;;;;;3.17;1.00;;;;;;;11.24;89.24;98642.53;5082254;28;20490;-73
2023/03/09 09:08:34;;;;;;;2.47;1.00;;;;;;;11.13;90.41;98648.00;5085133;28;20201;-73
2023/03/09 09:11:06;;;;;;;3.10;0.93;;;;;;;11.30;89.77;98655.66;5082480;28;20280;-73
2023/03/09 09:13:32;;;;;;;1.97;1.07;;;;;;;11.39;89.01;98662.56;5081556;28;20197;-74
2023/03/09 09:15:59;;;;;;;2.50;1.10;;;;;;;11.29;89.67;98664.53;5079973;28;20233;-73
2023/03/09 09:18:26;;;;;;;1.90;1.03;;;;;;;11.39;89.13;98662.56;5075936;28;20361;-74
2023/03/09 09:21:09;;;;;;;3.03;1.00;;;;;;;11.35;88.42;98661.75;5078068;28;20204;-73
2023/03/09 09:23:36;;;;;;;5.70;1.23;;;;;;;11.32;90.04;98676.84;5084617;28;20215;-73
2023/03/09 09:26:03;;;;;;;2.13;1.03;;;;;;;11.26;89.33;98668.09;5077111;28;20215;-74
2023/03/09 09:28:30;;;;;;;3.63;1.27;;;;;;;11.06;89.68;98672.84;5080484;28;22192;-73
2023/03/09 09:30:59;;;;;;;3.00;1.07;;;;;;;10.97;90.74;98683.59;5081269;28;20209;-73
2023/03/09 09:33:31;;;;;;;2.53;1.17;;;;;;;11.03;90.63;98686.13;5077880;28;20667;-73
2023/03/09 09:36:00;;;;;;;2.63;1.30;;;;;;;11.10;89.44;98690.44;5081041;28;20226;-72
2023/03/09 09:38:28;;;;;;;2.60;1.13;;;;;;;11.19;90.11;98690.28;5074121;28;20297;-73
2023/03/09 09:40:58;;;;;;;6.20;1.27;;;;;;;11.23;90.12;98692.00;5074669;28;20674;-73
2023/03/09 09:43:26;;;;;;;3.97;1.60;;;;;;;11.39;88.24;98699.69;5077721;28;20198;-73
2023/03/09 09:45:56;;;;;;;3.57;1.10;;;;;;;11.42;86.60;98696.97;5072960;28;20654;-73
2023/03/09 09:48:22;;;;;;;2.60;1.20;;;;;;;11.51;86.80;98696.81;5076769;28;20281;-74
2023/03/09 09:51:05;;;;;;;5.00;1.20;;;;;;;11.58;85.00;98704.63;5072455;28;20217;-73
2023/03/09 09:53:53;;;;;;;3.43;1.13;;;;;;;11.61;86.15;98709.03;5080400;28;20193;-73
2023/03/09 09:56:26;;;;;;;4.67;1.20;;;;;;;11.56;85.51;98706.44;5079657;28;20620;-73
2023/03/09 09:59:02;;;;;;;3.43;1.00;;;;;;;11.62;85.08;98708.13;5080146;28;20195;-74
2023/03/09 10:01:39;;;;;;;2.50;1.10;;;;;;;11.66;85.16;98711.59;5078475;28;20199;-73
2023/03/09 10:04:14;;;;;;;2.53;1.07;;;;;;;11.64;83.79;98708.09;5079184;28;20207;-74
2023/03/09 10:06:43;;;;;;;2.47;1.20;;;;;;;11.73;84.16;98708.78;5077120;28;20198;-73
2023/03/09 10:09:20;;;;;;;2.93;1.37;;;;;;;11.71;83.52;98713.25;5076459;28;20260;-74
2023/03/09 10:11:52;;;;;;;4.83;1.03;;;;;;;11.78;83.12;98714.91;5077058;28;20298;-74
2023/03/09 10:14:24;;;;;;;4.43;1.10;;;;;;;11.89;82.95;98707.63;5079310;28;20606;-74
2023/03/09 10:17:09;;;;;;;6.17;1.40;;;;;;;11.90;82.14;98722.63;5080662;28;20341;-74
2023/03/09 10:19:39;;;;;;;3.37;1.10;;;;;;;11.85;82.62;98716.53;5082604;28;20221;-74
2023/03/09 10:22:26;;;;;;;5.33;1.63;;;;;;;11.80;81.82;98723.72;5075824;28;20230;-74
2023/03/09 10:24:55;;;;;;;30.33;3.77;;;;;;;11.84;82.62;98722.75;5075808;28;20217;-73
2023/03/09 10:27:47;;;;;;;10.03;2.00;;;;;;;11.95;81.75;98729.63;5077587;28;20216;-74
2023/03/09 10:30:24;;;;;;;5.03;1.20;;;;;;;12.07;80.80;98734.72;5083349;28;20194;-75
2023/03/09 10:33:02;;;;;;;3.23;1.30;;;;;;;12.20;81.08;98737.09;5074570;28;20224;-74
2023/03/09 10:36:07;;;;;;;4.33;1.53;;;;;;;12.59;78.66;98733.66;5075538;28;20222;-74
2023/03/09 10:38:38;;;;;;;3.50;1.10;;;;;;;12.80;78.20;98747.34;5083239;28;20210;-73
2023/03/09 10:41:19;;;;;;;3.03;1.20;;;;;;;12.90;77.25;98744.50;5084741;28;20199;-73
2023/03/09 10:43:46;;;;;;;4.60;1.40;;;;;;;13.22;76.85;98749.13;5076980;28;20338;-74
2023/03/09 10:46:21;;;;;;;4.57;1.30;;;;;;;13.30;75.48;98763.97;5085554;28;20248;-74
2023/03/09 10:48:51;;;;;;;2.83;1.20;;;;;;;13.29;75.73;98770.19;5086437;28;20617;-73
2023/03/09 10:51:23;;;;;;;4.70;1.30;;;;;;;13.27;74.82;98771.16;5083832;28;20212;-74
2023/03/09 10:53:51;;;;;;;6.67;1.50;;;;;;;13.25;75.25;98772.97;5082325;28;20661;-74
2023/03/09 10:56:27;;;;;;;8.00;1.47;;;;;;;13.18;75.55;98765.13;5086741;28;20217;-74
2023/03/09 10:59:08;;;;;;;7.00;1.70;;;;;;;13.06;75.66;98770.69;5082492;28;20201;-73
2023/03/09 11:01:40;;;;;;;4.03;1.23;;;;;;;12.89;75.77;98780.81;5083955;28;20695;-72
2023/03/09 11:04:36;;;;;;;3.30;0.90;;;;;;;12.76;76.04;98788.16;5081761;28;20190;-72
2023/03/09 11:07:38;;;;;;;5.57;1.30;;;;;;;12.70;77.16;98790.09;5079988;28;20203;-74
2023/03/09 11:10:21;;;;;;;3.30;1.20;;;;;;;12.71;77.05;98789.16;5078658;28;20200;-72
2023/03/09 11:12:47;;;;;;;3.63;1.40;;;;;;;12.77;77.49;98804.97;5081058;28;20238;-72
2023/03/09 11:15:14;;;;;;;9.33;2.23;;;;;;;12.91;77.10;98802.94;5089185;28;20225;-73
2023/03/09 11:17:45;;;;;;;2.87;0.90;;;;;;;13.00;76.25;98809.81;5079616;28;20194;-73
2023/03/09 11:20:12;;;;;;;3.90;0.90;;;;;;;13.06;75.28;98796.38;5087361;28;20223;-74
2023/03/09 11:22:45;;;;;;;4.10;1.20;;;;;;;13.20;75.23;98804.94;5089165;28;20200;-74
2023/03/09 11:25:28;;;;;;;3.63;1.20;;;;;;;13.27;74.88;98806.59;5076724;28;20851;-73
2023/03/09 11:28:03;;;;;;;5.87;1.27;;;;;;;13.25;74.61;98808.41;5083663;28;20192;-73
2023/03/09 11:30:30;;;;;;;3.27;0.90;;;;;;;13.12;74.61;98804.22;5078017;28;20697;-72
2023/03/09 11:32:57;;;;;;;6.57;1.20;;;;;;;13.03;75.25;98812.41;5078128;28;20256;-74
2023/03/09 11:35:23;;;;;;;4.70;1.17;;;;;;;12.97;75.46;98808.09;5082603;28;20221;-74
2023/03/09 11:37:58;;;;;;;10.10;1.80;;;;;;;13.11;75.18;98811.31;5086018;28;20211;-74